Time;durP1;ratioP1;P1;durP2;ratioP2;P2;SDS_P1;SDS_P2;PMS_P1;PMS_P2;Temp;Humidity;BMP_temperature;BMP_pressure;BME280_temperature;BME280_humidity;BME280_pressure;Samples;Min_cycle;Max_cycle;Signal;HPM_P1;HPM_P2
2022/12/29 00:02:24;;;;;;;1.42;1.10;;;16.70;53.10;;;;;;4983826;28;20345;-63
2022/12/29 00:04:50;;;;;;;1.63;1.33;;;16.70;53.40;;;;;;4969067;29;20031;-63
2022/12/29 00:07:17;;;;;;;1.65;1.02;;;16.60;53.30;;;;;;4968864;28;20071;-63
2022/12/29 00:09:43;;;;;;;1.10;1.00;;;16.60;53.40;;;;;;4969061;29;20023;-63
2022/12/29 00:12:09;;;;;;;2.00;1.55;;;16.60;53.50;;;;;;4969053;29;20041;-63
2022/12/29 00:17:18;;;;;;;1.27;1.00;;;16.50;53.20;;;;;;4968986;29;20087;-62
2022/12/29 00:36:23;;;;;;;1.17;1.08;;;16.50;53.20;;;;;;4968856;28;20026;-62
2022/12/29 00:44:25;;;;;;;0.95;0.95;;;16.70;53.10;;;;;;4968747;28;20102;-62
2022/12/29 00:46:50;;;;;;;1.15;1.05;;;16.70;52.90;;;;;;4964608;28;20027;-62
2022/12/29 00:49:31;;;;;;;1.60;1.35;;;16.80;52.80;;;;;;4965676;29;20542;-62
2022/12/29 00:52:00;;;;;;;1.20;1.10;;;16.90;52.70;;;;;;4965615;29;20074;-64
2022/12/29 00:54:27;;;;;;;2.67;1.63;;;16.90;52.50;;;;;;4965519;29;20031;-64
2022/12/29 00:56:53;;;;;;;1.65;1.30;;;16.90;52.50;;;;;;4965601;29;20023;-62
2022/12/29 00:59:19;;;;;;;2.08;0.98;;;16.90;52.40;;;;;;4965483;29;20292;-61
2022/12/29 01:01:46;;;;;;;1.20;1.10;;;17.00;52.40;;;;;;4965471;29;20015;-62
2022/12/29 01:04:13;;;;;;;1.58;1.13;;;17.00;52.30;;;;;;4965261;29;20027;-62
2022/12/29 01:06:40;;;;;;;1.55;1.13;;;17.00;52.20;;;;;;4965367;29;20019;-62
2022/12/29 01:11:53;;;;;;;1.45;1.17;;;16.90;52.50;;;;;;4935022;29;20070;-62
2022/12/29 01:14:19;;;;;;;1.27;1.10;;;16.80;52.70;;;;;;4965135;29;20022;-62
2022/12/29 01:16:45;;;;;;;1.38;1.10;;;16.70;52.60;;;;;;4965053;29;20027;-62
2022/12/29 01:19:12;;;;;;;2.40;1.42;;;16.70;53.10;;;;;;4964945;29;20082;-63
2022/12/29 01:21:38;;;;;;;1.80;1.45;;;16.60;53.30;;;;;;4965014;29;20024;-63
2022/12/29 01:24:04;;;;;;;1.73;1.17;;;16.60;53.40;;;;;;4964932;29;20021;-66
2022/12/29 01:26:30;;;;;;;1.67;1.20;;;16.50;53.40;;;;;;4964918;29;20049;-62
2022/12/29 01:28:57;;;;;;;1.20;1.10;;;16.50;53.50;;;;;;4964935;29;20031;-62
2022/12/29 01:31:22;;;;;;;2.42;1.33;;;16.50;53.40;;;;;;4964827;29;20350;-62
2022/12/29 01:33:48;;;;;;;1.92;1.20;;;16.50;53.30;;;;;;4964766;29;20037;-63
2022/12/29 01:36:16;;;;;;;1.10;1.00;;;16.50;53.30;;;;;;4964715;29;20051;-62
2022/12/29 01:38:42;;;;;;;1.40;1.30;;;16.50;53.10;;;;;;4964594;29;20101;-62
2022/12/29 01:41:10;;;;;;;2.42;1.23;;;16.50;53.00;;;;;;4964755;29;20055;-63
2022/12/29 01:43:51;;;;;;;1.83;1.33;;;16.50;53.20;;;;;;4964548;29;20019;-62
2022/12/29 01:46:26;;;;;;;1.73;1.40;;;16.50;53.20;;;;;;4964595;29;20042;-63
2022/12/29 01:49:07;;;;;;;1.85;1.40;;;16.50;53.20;;;;;;4964629;29;20545;-63
2022/12/29 01:51:38;;;;;;;1.48;1.00;;;16.50;53.20;;;;;;4964531;29;20031;-62
2022/12/29 01:54:09;;;;;;;1.67;1.20;;;16.50;53.20;;;;;;4964440;29;20031;-63
2022/12/29 01:56:35;;;;;;;1.70;1.38;;;16.60;53.20;;;;;;4964382;29;20030;-62
2022/12/29 01:59:07;;;;;;;2.25;1.50;;;16.60;52.70;;;;;;4964014;28;20106;-62
2022/12/29 02:01:33;;;;;;;1.40;1.13;;;16.60;52.80;;;;;;4964273;29;20023;-62
2022/12/29 02:03:59;;;;;;;1.83;1.05;;;16.70;52.80;;;;;;4964137;29;20027;-63
2022/12/29 02:06:50;;;;;;;1.40;1.30;;;16.80;52.80;;;;;;4964117;29;20078;-62
2022/12/29 02:09:15;;;;;;;1.80;1.20;;;16.80;52.60;;;;;;4963843;28;20122;-63
2022/12/29 02:11:41;;;;;;;2.05;1.40;;;16.90;52.50;;;;;;4963904;29;20215;-63
2022/12/29 02:14:12;;;;;;;1.48;1.38;;;16.80;52.50;;;;;;4963916;29;20357;-63
2022/12/29 02:17:15;;;;;;;1.65;1.27;;;16.80;52.30;;;;;;4963794;29;20050;-63
2022/12/29 02:20:38;;;;;;;2.03;1.60;;;16.90;52.30;;;;;;4963656;29;20082;-63
2022/12/29 02:23:22;;;;;;;2.17;1.42;;;17.00;52.20;;;;;;4923471;29;20036;-62
2022/12/29 02:26:14;;;;;;;1.83;1.33;;;17.00;52.10;;;;;;4923630;29;20088;-64
2022/12/29 02:28:39;;;;;;;1.90;1.42;;;17.00;51.90;;;;;;4954168;29;20047;-63
2022/12/29 02:31:28;;;;;;;1.58;1.27;;;17.00;52.10;;;;;;4963568;29;20030;-63
2022/12/29 02:33:53;;;;;;;2.13;1.60;;;17.00;52.30;;;;;;4963685;29;20030;-63
2022/12/29 02:36:37;;;;;;;2.13;1.42;;;16.90;52.50;;;;;;4963515;29;20101;-62
2022/12/29 02:39:27;;;;;;;2.15;1.58;;;16.80;52.60;;;;;;4963572;29;20035;-62
2022/12/29 02:41:53;;;;;;;1.55;1.30;;;16.70;52.80;;;;;;4963890;29;20030;-62
2022/12/29 02:44:45;;;;;;;1.73;1.40;;;16.60;53.00;;;;;;4963355;29;20096;-63
2022/12/29 02:47:32;;;;;;;2.20;1.27;;;16.60;53.10;;;;;;4963032;29;20061;-63
2022/12/29 02:50:06;;;;;;;2.05;1.40;;;16.50;53.20;;;;;;4963290;29;20039;-62
2022/12/29 02:52:38;;;;;;;1.35;1.10;;;16.50;53.30;;;;;;4963112;29;20021;-63
2022/12/29 02:55:04;;;;;;;1.67;1.38;;;16.50;53.30;;;;;;4963121;29;20230;-62
2022/12/29 02:57:34;;;;;;;1.80;1.55;;;16.50;52.90;;;;;;4963093;29;20042;-63
2022/12/29 03:00:15;;;;;;;2.15;1.40;;;16.50;53.00;;;;;;4962731;29;20042;-63
2022/12/29 03:02:57;;;;;;;2.35;1.70;;;16.50;53.00;;;;;;4963007;29;20042;-63
2022/12/29 03:05:47;;;;;;;1.48;1.38;;;16.50;53.20;;;;;;4963061;29;20031;-63
2022/12/29 03:08:26;;;;;;;1.80;1.42;;;16.50;52.80;;;;;;4959983;29;20055;-63
2022/12/29 03:11:01;;;;;;;1.63;1.45;;;16.50;53.10;;;;;;4962400;28;20015;-62
2022/12/29 03:16:43;;;;;;;1.98;1.67;;;16.50;52.90;;;;;;4962876;29;20030;-62
2022/12/29 03:19:33;;;;;;;2.22;1.50;;;16.60;52.90;;;;;;4962648;29;20356;-64
2022/12/29 03:24:58;;;;;;;1.17;1.08;;;16.70;52.70;;;;;;4962773;29;20031;-63
2022/12/29 03:27:46;;;;;;;1.40;1.15;;;16.80;52.70;;;;;;4962778;29;20566;-63
2022/12/29 03:30:13;;;;;;;1.88;1.45;;;16.80;52.50;;;;;;4944977;29;20069;-64
2022/12/29 03:33:00;;;;;;;1.45;1.25;;;16.80;52.50;;;;;;4962647;29;20027;-63
2022/12/29 03:35:31;;;;;;;2.20;1.73;;;16.90;52.50;;;;;;4962516;29;20027;-62
2022/12/29 03:38:43;;;;;;;1.88;1.45;;;16.90;52.40;;;;;;4962556;29;20383;-62
2022/12/29 03:41:15;;;;;;;1.75;1.50;;;16.90;52.10;;;;;;4962082;29;20547;-63
2022/12/29 03:43:41;;;;;;;1.38;1.20;;;17.00;52.00;;;;;;4962612;29;20456;-62
2022/12/29 03:46:07;;;;;;;1.58;1.48;;;17.00;51.90;;;;;;4962667;29;20031;-62
2022/12/29 03:48:32;;;;;;;1.50;1.40;;;17.00;51.70;;;;;;4962523;29;20161;-62
2022/12/29 03:50:59;;;;;;;1.20;1.10;;;17.00;52.00;;;;;;4962248;29;20087;-63
2022/12/29 03:53:24;;;;;;;1.75;1.48;;;16.90;52.20;;;;;;4962404;29;20095;-62
2022/12/29 03:55:50;;;;;;;2.67;1.73;;;16.80;52.40;;;;;;4962421;29;20035;-63
2022/12/29 03:58:16;;;;;;;2.08;1.63;;;16.70;52.60;;;;;;4962324;29;20027;-63
2022/12/29 04:00:42;;;;;;;1.45;1.30;;;16.70;52.80;;;;;;4961172;29;20057;-63
2022/12/29 04:03:08;;;;;;;1.55;1.38;;;16.60;53.00;;;;;;4962391;29;20126;-63
2022/12/29 04:05:34;;;;;;;2.15;1.50;;;16.60;53.10;;;;;;4962336;29;20027;-62
2022/12/29 04:07:59;;;;;;;1.58;1.27;;;16.50;53.20;;;;;;4961999;29;20055;-63
2022/12/29 04:10:25;;;;;;;1.45;1.13;;;16.50;53.20;;;;;;4962165;29;20114;-63
2022/12/29 04:12:51;;;;;;;1.38;1.02;;;16.50;53.10;;;;;;4962301;29;20027;-64
2022/12/29 04:15:17;;;;;;;2.15;1.60;;;16.50;53.10;;;;;;4962345;29;20027;-62
2022/12/29 04:17:43;;;;;;;1.90;1.58;;;16.50;53.00;;;;;;4962233;29;20023;-64
2022/12/29 04:23:19;;;;;;;2.28;1.48;;;16.50;53.10;;;;;;4964828;29;20043;-63
2022/12/29 04:25:49;;;;;;;2.00;1.40;;;16.50;53.00;;;;;;4964432;29;20254;-62
2022/12/29 04:28:16;;;;;;;2.22;1.48;;;16.50;53.00;;;;;;4965857;29;20019;-64
2022/12/29 04:30:43;;;;;;;1.50;1.38;;;16.50;53.20;;;;;;4965688;29;20038;-62
2022/12/29 04:33:10;;;;;;;1.60;1.40;;;16.50;53.10;;;;;;4965708;29;20019;-62
2022/12/29 04:35:36;;;;;;;1.67;1.50;;;16.50;53.00;;;;;;4965679;29;20023;-62
2022/12/29 04:38:02;;;;;;;3.10;1.60;;;16.60;52.90;;;;;;4965414;29;20038;-63
2022/12/29 04:40:28;;;;;;;2.25;1.58;;;16.70;52.80;;;;;;4965609;29;20086;-62
2022/12/29 04:42:54;;;;;;;1.70;1.40;;;16.70;52.70;;;;;;4965535;29;20046;-64
2022/12/29 04:45:20;;;;;;;2.33;1.80;;;16.80;52.70;;;;;;4965479;29;20065;-62
2022/12/29 04:47:45;;;;;;;1.77;1.67;;;16.80;52.50;;;;;;4965464;29;20439;-62
2022/12/29 04:50:12;;;;;;;1.42;1.10;;;16.90;52.50;;;;;;4965236;29;20031;-64
2022/12/29 04:52:38;;;;;;;1.52;1.40;;;16.80;52.50;;;;;;4965333;29;20054;-63
2022/12/29 04:55:05;;;;;;;1.42;1.23;;;16.80;52.40;;;;;;4965338;29;20333;-62
2022/12/29 04:57:31;;;;;;;1.58;1.40;;;16.90;52.30;;;;;;4965215;29;20038;-62
2022/12/29 04:59:57;;;;;;;2.10;1.58;;;16.90;52.20;;;;;;4965148;29;20027;-63
2022/12/29 05:02:23;;;;;;;1.55;1.40;;;17.00;52.10;;;;;;4965190;29;20038;-62
2022/12/29 05:04:49;;;;;;;1.95;1.60;;;17.00;52.10;;;;;;4965158;29;20019;-62
2022/12/29 05:07:15;;;;;;;2.35;1.92;;;16.90;52.10;;;;;;4964978;29;20177;-62
2022/12/29 05:09:41;;;;;;;1.63;1.48;;;16.80;52.20;;;;;;4965111;29;20023;-63
2022/12/29 05:12:07;;;;;;;2.38;1.77;;;16.80;52.50;;;;;;4965029;29;20226;-63
2022/12/29 05:14:33;;;;;;;1.48;1.27;;;16.70;52.70;;;;;;4965016;29;20034;-63
2022/12/29 05:16:58;;;;;;;1.73;1.63;;;16.70;52.70;;;;;;4964879;29;20046;-62
2022/12/29 05:19:24;;;;;;;3.05;1.50;;;16.60;53.00;;;;;;4964674;29;20231;-62
2022/12/29 05:21:50;;;;;;;1.85;1.40;;;16.60;53.10;;;;;;4964828;29;20062;-63
2022/12/29 05:24:16;;;;;;;1.70;1.60;;;16.50;53.20;;;;;;4964702;29;20023;-64
2022/12/29 05:26:42;;;;;;;1.40;1.23;;;16.40;53.30;;;;;;4964718;29;20027;-63
2022/12/29 05:29:08;;;;;;;1.90;1.40;;;16.40;53.20;;;;;;4964505;29;20031;-64
2022/12/29 05:31:35;;;;;;;2.15;1.67;;;16.50;53.10;;;;;;4947189;29;20106;-62
2022/12/29 05:34:01;;;;;;;1.63;1.52;;;16.50;52.90;;;;;;4946605;29;20515;-63
2022/12/29 05:36:27;;;;;;;2.42;1.38;;;16.50;52.90;;;;;;4964464;29;20408;-62
2022/12/29 05:38:53;;;;;;;1.88;1.63;;;16.50;52.80;;;;;;4964376;29;20031;-62
2022/12/29 05:41:19;;;;;;;2.60;1.67;;;16.50;53.10;;;;;;4964473;29;20031;-62
2022/12/29 05:43:44;;;;;;;2.88;1.92;;;16.40;52.90;;;;;;4964135;29;20027;-62
2022/12/29 05:46:11;;;;;;;2.33;1.58;;;16.40;52.80;;;;;;4964197;29;20019;-62
2022/12/29 05:48:36;;;;;;;1.70;1.48;;;16.50;52.80;;;;;;4964126;29;20035;-63
2022/12/29 05:51:02;;;;;;;1.63;1.20;;;16.50;53.00;;;;;;4964100;29;20078;-63
2022/12/29 05:53:28;;;;;;;2.05;1.60;;;16.60;52.80;;;;;;4964188;29;20034;-62
2022/12/29 05:55:54;;;;;;;2.25;1.52;;;16.60;52.70;;;;;;4964145;29;20055;-62
2022/12/29 05:58:20;;;;;;;2.83;2.08;;;16.70;52.70;;;;;;4964010;29;20027;-62
2022/12/29 06:00:46;;;;;;;1.85;1.48;;;16.70;52.60;;;;;;4962783;29;20023;-63
2022/12/29 06:03:11;;;;;;;1.95;1.60;;;16.80;52.60;;;;;;4963737;29;20033;-64
2022/12/29 06:05:37;;;;;;;1.50;1.40;;;16.80;52.40;;;;;;4963889;29;20170;-63
2022/12/29 06:08:03;;;;;;;1.80;1.25;;;16.80;52.50;;;;;;4963713;29;20054;-63
2022/12/29 06:10:29;;;;;;;1.52;1.40;;;16.80;52.40;;;;;;4963674;29;20063;-64
2022/12/29 06:12:55;;;;;;;1.98;1.30;;;16.80;52.30;;;;;;4963795;29;20303;-64
2022/12/29 06:15:21;;;;;;;1.83;1.60;;;16.90;52.10;;;;;;4963777;29;20019;-63
2022/12/29 06:17:47;;;;;;;1.58;1.42;;;17.00;52.00;;;;;;4963689;29;20027;-62
2022/12/29 06:20:12;;;;;;;1.63;1.38;;;16.90;52.10;;;;;;4963466;29;20045;-63
2022/12/29 06:22:38;;;;;;;2.28;1.70;;;16.90;52.20;;;;;;4963608;29;20023;-62
2022/12/29 06:25:05;;;;;;;1.77;1.48;;;16.80;52.40;;;;;;4963614;29;20034;-62
2022/12/29 06:27:31;;;;;;;1.95;1.65;;;16.70;52.50;;;;;;4963578;29;20366;-63
2022/12/29 06:29:57;;;;;;;1.58;1.40;;;16.70;52.80;;;;;;4963547;29;20023;-62
2022/12/29 06:32:23;;;;;;;1.83;1.55;;;16.60;52.90;;;;;;4963541;29;20100;-62
2022/12/29 06:34:49;;;;;;;2.40;1.40;;;16.50;53.00;;;;;;4963430;29;20042;-64
2022/12/29 06:37:15;;;;;;;1.90;1.30;;;16.50;53.10;;;;;;4963410;29;20031;-63
2022/12/29 06:39:40;;;;;;;1.95;1.55;;;16.40;53.20;;;;;;4963049;29;20055;-63
2022/12/29 06:42:06;;;;;;;2.00;1.45;;;16.40;53.30;;;;;;4963338;29;20016;-62
2022/12/29 06:44:32;;;;;;;2.45;1.90;;;16.40;53.80;;;;;;4962455;28;20019;-63
2022/12/29 06:46:58;;;;;;;2.97;1.52;;;16.50;53.20;;;;;;4963199;29;20390;-63
2022/12/29 06:49:24;;;;;;;1.70;1.35;;;16.50;53.10;;;;;;4963143;29;20063;-64
2022/12/29 06:51:49;;;;;;;2.45;1.77;;;16.50;53.10;;;;;;4963016;29;20266;-62
2022/12/29 06:54:15;;;;;;;1.60;1.30;;;16.50;53.10;;;;;;4963115;29;20039;-62
2022/12/29 06:56:41;;;;;;;1.60;1.50;;;16.40;53.10;;;;;;4963092;29;20045;-62
2022/12/29 06:59:07;;;;;;;1.85;1.30;;;16.50;53.00;;;;;;4963182;29;20357;-62
2022/12/29 07:01:33;;;;;;;1.70;1.50;;;16.50;53.10;;;;;;4962951;29;20340;-62
2022/12/29 07:03:58;;;;;;;2.17;1.65;;;16.40;53.10;;;;;;4962699;29;20027;-63
2022/12/29 07:06:24;;;;;;;2.30;1.83;;;16.50;53.10;;;;;;4962926;29;20029;-62
2022/12/29 07:08:50;;;;;;;2.35;1.50;;;16.50;52.90;;;;;;4962768;29;20062;-63
2022/12/29 07:11:16;;;;;;;1.98;1.35;;;16.60;52.70;;;;;;4962774;29;20034;-62
2022/12/29 07:13:42;;;;;;;1.80;1.60;;;16.70;52.50;;;;;;4962892;29;20288;-62
2022/12/29 07:16:08;;;;;;;1.48;1.17;;;16.70;52.50;;;;;;4962736;29;20027;-63
2022/12/29 07:18:35;;;;;;;2.00;1.70;;;16.80;52.40;;;;;;4962623;29;20039;-63
2022/12/29 07:21:01;;;;;;;2.03;1.60;;;16.90;52.30;;;;;;4962611;29;20090;-63
2022/12/29 07:23:27;;;;;;;1.85;1.52;;;16.90;52.30;;;;;;4962789;29;20342;-62
2022/12/29 07:26:05;;;;;;;1.73;1.60;;;16.90;52.20;;;;;;4962503;29;20034;-62
2022/12/29 07:28:34;;;;;;;2.20;1.60;;;16.90;52.10;;;;;;4962516;29;20027;-63
2022/12/29 07:31:00;;;;;;;2.00;1.58;;;17.00;52.10;;;;;;4962685;29;20061;-62
2022/12/29 07:33:29;;;;;;;1.77;1.52;;;17.00;52.00;;;;;;4962533;29;20031;-62
2022/12/29 07:35:55;;;;;;;1.52;1.42;;;17.00;51.80;;;;;;4962542;29;20243;-62
2022/12/29 07:38:20;;;;;;;1.70;1.50;;;17.10;51.90;;;;;;4962476;29;20059;-62
2022/12/29 07:40:46;;;;;;;2.60;1.80;;;17.10;51.90;;;;;;4962502;29;20027;-62
2022/12/29 07:43:12;;;;;;;2.22;1.65;;;17.00;51.90;;;;;;4962508;29;20039;-62
2022/12/29 07:45:38;;;;;;;1.70;1.58;;;17.00;52.10;;;;;;4962496;29;20210;-62
2022/12/29 07:48:07;;;;;;;1.58;1.48;;;17.00;52.20;;;;;;4962268;29;20455;-62
2022/12/29 07:50:36;;;;;;;1.20;1.10;;;16.80;52.30;;;;;;4962397;29;20022;-63
2022/12/29 07:53:02;;;;;;;2.40;1.88;;;16.80;52.50;;;;;;4962652;29;20113;-63
2022/12/29 07:55:29;;;;;;;1.80;1.60;;;16.70;52.70;;;;;;4962988;28;20015;-63
2022/12/29 07:57:55;;;;;;;2.03;1.55;;;16.70;52.80;;;;;;4966307;29;20051;-63
2022/12/29 08:00:22;;;;;;;3.72;1.65;;;16.60;52.80;;;;;;4966189;29;20219;-64
2022/12/29 08:02:48;;;;;;;2.63;1.67;;;16.60;53.00;;;;;;4966214;29;20031;-63
2022/12/29 08:05:15;;;;;;;1.77;1.65;;;16.60;53.20;;;;;;4966150;29;20030;-63
2022/12/29 08:07:43;;;;;;;1.58;1.48;;;16.50;53.20;;;;;;4965940;29;20063;-63
2022/12/29 08:10:10;;;;;;;;;;;16.50;53.20;;;;;;4966553;29;20085;-63
2022/12/29 08:12:37;;;;;;;2.03;1.40;;;16.50;53.10;;;;;;4965999;29;19918;-62
2022/12/29 08:15:03;;;;;;;2.22;1.65;;;16.60;53.00;;;;;;4965985;29;20147;-63
2022/12/29 08:17:29;;;;;;;2.58;2.08;;;16.60;52.90;;;;;;4965972;29;20025;-63
2022/12/29 08:19:55;;;;;;;2.28;1.73;;;16.60;52.70;;;;;;4965843;29;20223;-64
2022/12/29 08:22:21;;;;;;;3.75;2.63;;;16.60;52.70;;;;;;4964578;29;20224;-63
2022/12/29 08:24:47;;;;;;;2.05;1.58;;;16.60;52.70;;;;;;4965846;29;20031;-63
2022/12/29 08:27:13;;;;;;;2.20;1.90;;;16.60;52.70;;;;;;4965733;29;20027;-63
2022/12/29 08:29:39;;;;;;;1.73;1.50;;;16.60;52.70;;;;;;4965744;29;20062;-63
2022/12/29 08:32:06;;;;;;;1.67;1.40;;;16.70;52.70;;;;;;4964253;29;20049;-63
2022/12/29 08:34:32;;;;;;;2.50;2.05;;;16.60;52.70;;;;;;4965671;29;20405;-62
2022/12/29 08:36:58;;;;;;;1.60;1.50;;;16.60;52.60;;;;;;4965617;29;20035;-63
2022/12/29 08:39:24;;;;;;;1.90;1.60;;;16.60;52.70;;;;;;4965436;29;20050;-63
2022/12/29 08:41:50;;;;;;;1.90;1.70;;;16.60;52.70;;;;;;4965418;29;20335;-64
2022/12/29 08:44:16;;;;;;;1.60;1.48;;;16.60;52.70;;;;;;4965299;29;20083;-63
2022/12/29 08:46:42;;;;;;;1.40;1.20;;;16.70;52.70;;;;;;4947846;29;20054;-64
2022/12/29 08:49:08;;;;;;;2.85;1.95;;;16.70;52.40;;;;;;4965298;29;20035;-63
2022/12/29 08:51:34;;;;;;;1.88;1.67;;;16.80;52.30;;;;;;4965127;29;20035;-63
2022/12/29 08:54:00;;;;;;;1.90;1.70;;;16.90;52.10;;;;;;4965264;29;20023;-63
2022/12/29 08:56:26;;;;;;;3.13;1.55;;;17.00;52.00;;;;;;4965220;29;20027;-63
2022/12/29 08:58:53;;;;;;;1.80;1.50;;;17.00;51.90;;;;;;4965072;29;20031;-63
2022/12/29 09:01:19;;;;;;;2.45;1.65;;;17.10;51.80;;;;;;4965136;29;20035;-63
2022/12/29 09:03:45;;;;;;;2.10;1.83;;;17.20;51.70;;;;;;4965079;29;20019;-63
2022/12/29 09:06:11;;;;;;;3.05;1.67;;;17.20;51.80;;;;;;4964686;29;20034;-63
2022/12/29 09:08:37;;;;;;;2.13;1.33;;;17.10;52.50;;;;;;4963958;28;20133;-63
2022/12/29 09:11:18;;;;;;;1.88;1.67;;;17.10;52.00;;;;;;4964890;29;20038;-63
2022/12/29 09:13:44;;;;;;;1.92;1.63;;;17.00;52.10;;;;;;4965018;29;20027;-63
2022/12/29 09:16:10;;;;;;;1.92;1.50;;;17.00;52.30;;;;;;4964909;29;20023;-63
2022/12/29 09:18:36;;;;;;;2.13;1.92;;;16.90;52.30;;;;;;4964825;29;20034;-63
2022/12/29 09:21:05;;;;;;;1.42;1.30;;;16.90;52.50;;;;;;4964868;29;20031;-64
2022/12/29 09:23:31;;;;;;;2.03;1.83;;;16.90;52.50;;;;;;4964597;29;20334;-63
2022/12/29 09:25:58;;;;;;;2.42;1.73;;;16.80;52.50;;;;;;4964606;29;20039;-63
2022/12/29 09:28:24;;;;;;;2.40;1.58;;;16.90;52.60;;;;;;4964334;29;20094;-63
2022/12/29 09:30:50;;;;;;;1.48;1.38;;;16.90;52.60;;;;;;4964664;29;20078;-63
2022/12/29 09:33:16;;;;;;;1.83;1.40;;;16.90;52.60;;;;;;4964404;29;20196;-63
2022/12/29 09:35:53;;;;;;;1.65;1.40;;;16.80;52.60;;;;;;4964542;29;20055;-62
2022/12/29 09:38:20;;;;;;;1.92;1.50;;;16.80;52.60;;;;;;4964465;29;20427;-62
2022/12/29 09:40:50;;;;;;;1.88;1.33;;;16.90;52.60;;;;;;4964480;29;20026;-62
2022/12/29 09:43:47;;;;;;;2.35;1.65;;;16.90;52.60;;;;;;4964423;29;20022;-62
2022/12/29 09:46:28;;;;;;;1.80;1.40;;;16.90;52.60;;;;;;4964334;29;20107;-62
2022/12/29 09:49:15;;;;;;;2.22;1.60;;;16.80;52.60;;;;;;4964320;29;20083;-62
2022/12/29 09:51:43;;;;;;;2.28;1.48;;;16.80;52.60;;;;;;4964248;29;20098;-63
2022/12/29 09:54:27;;;;;;;1.85;1.40;;;16.90;52.60;;;;;;4964227;29;20039;-62
2022/12/29 09:56:53;;;;;;;1.10;1.00;;;16.90;52.60;;;;;;4963934;29;20038;-62
2022/12/29 09:59:31;;;;;;;2.83;1.58;;;16.90;53.20;;;;;;4964013;29;20035;-62
2022/12/29 10:02:14;;;;;;;1.70;1.45;;;16.90;52.50;;;;;;4963829;29;20090;-62
2022/12/29 10:04:41;;;;;;;1.52;1.38;;;16.90;52.60;;;;;;4964110;29;20027;-62
2022/12/29 10:07:45;;;;;;;3.15;1.73;;;16.90;52.60;;;;;;4963740;29;20055;-63
2022/12/29 10:10:34;;;;;;;1.80;1.60;;;16.90;52.60;;;;;;4942444;29;20277;-62
2022/12/29 10:13:15;;;;;;;1.33;1.17;;;16.90;52.50;;;;;;4962509;29;20034;-62
2022/12/29 10:15:48;;;;;;;1.75;1.50;;;17.00;52.50;;;;;;4963888;29;20255;-62
2022/12/29 10:18:27;;;;;;;2.58;1.83;;;17.00;52.50;;;;;;4963693;28;20035;-62
2022/12/29 10:20:55;;;;;;;;;;;17.00;52.50;;;;;;4964192;29;20031;-63
2022/12/29 10:23:29;;;;;;;1.63;1.50;;;17.00;52.30;;;;;;4963709;29;19910;-63
2022/12/29 10:25:57;;;;;;;1.50;1.30;;;17.00;52.50;;;;;;4963541;29;20038;-66
2022/12/29 10:28:33;;;;;;;18.77;11.80;;;17.00;52.30;;;;;;4963388;29;20023;-62
2022/12/29 10:31:01;;;;;;;9.38;6.82;;;16.90;44.80;;;;;;4963501;29;20019;-65
2022/12/29 10:33:36;;;;;;;6.63;3.78;;;16.40;48.60;;;;;;4963532;29;20022;-62
2022/12/29 10:36:34;;;;;;;6.82;2.67;;;16.50;51.80;;;;;;4963449;29;20095;-65
2022/12/29 10:39:03;;;;;;;;;;;16.70;52.90;;;;;;4962314;29;20045;-63
2022/12/29 10:41:43;;;;;;;25.23;5.00;;;16.80;52.20;;;;;;4963245;29;19948;-63
2022/12/29 10:44:14;;;;;;;23.75;3.70;;;16.90;52.10;;;;;;4963356;29;20287;-65
2022/12/29 10:46:40;;;;;;;23.55;4.30;;;16.90;52.30;;;;;;4963307;29;20094;-63
2022/12/29 10:49:12;;;;;;;15.05;3.75;;;17.00;52.30;;;;;;4963433;29;20507;-62
2022/12/29 10:51:42;;;;;;;13.25;3.25;;;17.10;52.20;;;;;;4963232;29;20034;-61
2022/12/29 10:54:24;;;;;;;15.30;3.45;;;17.10;52.10;;;;;;4963127;29;20023;-62
2022/12/29 10:56:54;;;;;;;8.43;3.20;;;17.10;52.10;;;;;;4963053;29;20081;-62
2022/12/29 10:59:25;;;;;;;14.43;3.20;;;17.10;52.10;;;;;;4963141;29;20102;-67
2022/12/29 11:02:09;;;;;;;10.77;2.83;;;17.10;52.30;;;;;;4963095;29;20071;-65
2022/12/29 11:05:02;;;;;;;6.68;2.78;;;17.10;52.30;;;;;;4963028;29;20033;-65
2022/12/29 11:07:29;;;;;;;14.55;2.45;;;17.10;52.30;;;;;;4961592;29;20043;-64
2022/12/29 11:10:16;;;;;;;14.47;3.43;;;17.20;52.40;;;;;;4962937;29;20057;-68
2022/12/29 11:13:10;;;;;;;21.77;5.55;;;17.10;52.40;;;;;;4962841;29;20042;-66
2022/12/29 11:15:43;;;;;;;15.20;3.30;;;17.10;52.40;;;;;;4962859;29;20035;-66
2022/12/29 11:18:32;;;;;;;12.60;2.95;;;17.10;52.50;;;;;;4962716;29;20030;-66
2022/12/29 11:21:01;;;;;;;15.15;3.17;;;17.20;52.20;;;;;;4962730;29;20359;-66
2022/12/29 11:23:33;;;;;;;;;;;17.20;52.40;;;;;;4963127;29;20378;-69
2022/12/29 11:26:14;;;;;;;9.88;2.95;;;17.20;52.40;;;;;;4962652;29;20130;-65
2022/12/29 11:28:42;;;;;;;12.48;2.92;;;17.20;52.40;;;;;;4962746;29;20431;-66
2022/12/29 11:31:10;;;;;;;24.05;3.97;;;17.20;52.30;;;;;;4962177;29;20035;-64
2022/12/29 11:33:38;;;;;;;15.03;2.40;;;17.20;52.50;;;;;;4962685;29;20038;-63
2022/12/29 11:36:20;;;;;;;8.77;2.92;;;17.20;52.70;;;;;;4962613;29;20071;-63
2022/12/29 11:38:51;;;;;;;13.90;2.63;;;17.20;52.40;;;;;;4962489;29;20527;-62
2022/12/29 11:41:29;;;;;;;11.10;2.53;;;17.20;52.50;;;;;;4962666;29;20069;-63
2022/12/29 11:43:58;;;;;;;12.85;3.80;;;17.20;52.50;;;;;;4962502;29;20031;-64
2022/12/29 11:46:29;;;;;;;10.57;3.05;;;17.20;52.60;;;;;;4962273;29;20011;-63
2022/12/29 11:48:59;;;;;;;10.52;2.60;;;17.10;52.60;;;;;;4962452;29;20378;-63
2022/12/29 11:51:41;;;;;;;12.77;2.88;;;17.10;52.90;;;;;;4962370;29;20031;-63
2022/12/29 11:54:12;;;;;;;14.70;3.00;;;17.10;53.00;;;;;;4962489;29;20035;-70
2022/12/29 11:56:43;;;;;;;10.52;2.63;;;17.10;52.90;;;;;;4962530;29;20035;-71
2022/12/29 11:59:27;;;;;;;14.32;3.25;;;17.10;53.10;;;;;;4962429;29;20062;-72
2022/12/29 12:01:54;;;;;;;10.85;3.10;;;17.10;53.10;;;;;;4962516;29;20077;-69
2022/12/29 12:04:25;;;;;;;8.93;3.05;;;17.00;53.40;;;;;;4962448;29;20099;-72
2022/12/29 12:07:12;;;;;;;17.13;3.88;;;17.00;53.50;;;;;;4962357;29;20062;-69
2022/12/29 12:09:50;;;;;;;10.15;3.00;;;17.10;53.90;;;;;;4961086;29;20047;-67
2022/12/29 12:12:44;;;;;;;11.38;3.22;;;17.10;54.10;;;;;;4962368;29;20062;-69
2022/12/29 12:15:20;;;;;;;15.15;3.72;;;17.10;54.00;;;;;;4962385;29;20034;-68
2022/12/29 12:18:11;;;;;;;10.85;2.97;;;17.10;54.10;;;;;;4962461;29;20035;-70
2022/12/29 12:20:56;;;;;;;15.93;2.50;;;17.10;54.10;;;;;;4962505;29;20326;-70
2022/12/29 12:23:53;;;;;;;11.93;3.00;;;17.10;54.20;;;;;;4962496;29;20046;-69
2022/12/29 12:26:27;;;;;;;11.50;3.83;;;17.10;54.40;;;;;;4962277;29;20051;-70
2022/12/29 12:29:00;;;;;;;11.23;2.63;;;17.10;54.50;;;;;;4962322;29;20038;-69
2022/12/29 12:31:47;;;;;;;10.48;3.38;;;17.10;54.80;;;;;;4962130;29;20333;-69
2022/12/29 12:34:28;;;;;;;13.32;3.50;;;17.10;54.50;;;;;;4962217;29;20035;-69
2022/12/29 12:37:06;;;;;;;8.20;3.58;;;17.20;54.10;;;;;;4960889;29;20035;-69
2022/12/29 12:40:00;;;;;;;10.35;2.97;;;17.20;54.40;;;;;;4961980;29;20094;-70
2022/12/29 12:43:05;;;;;;;4.93;2.70;;;17.20;54.00;;;;;;4962516;28;20031;-69
2022/12/29 12:45:37;;;;;;;9.07;3.33;;;17.30;53.60;;;;;;4943734;29;20035;-69
2022/12/29 12:48:12;;;;;;;8.35;2.70;;;17.50;53.30;;;;;;4965428;29;20208;-70
2022/12/29 12:50:58;;;;;;;7.43;2.92;;;17.50;53.10;;;;;;4965458;29;20029;-70
2022/12/29 12:54:04;;;;;;;5.47;2.45;;;17.60;52.80;;;;;;4965482;29;20027;-69
2022/12/29 12:56:33;;;;;;;7.07;3.03;;;17.70;52.60;;;;;;4954778;29;20027;-69
2022/12/29 12:59:30;;;;;;;11.15;2.78;;;17.80;52.20;;;;;;4964025;29;20034;-70
2022/12/29 13:02:01;;;;;;;14.00;2.92;;;18.10;51.50;;;;;;4964965;29;20031;-68
2022/12/29 13:04:27;;;;;;;10.77;3.00;;;18.40;50.80;;;;;;4965354;29;20113;-69
2022/12/29 13:07:15;;;;;;;13.15;3.33;;;18.60;50.30;;;;;;4965355;29;20031;-69
2022/12/29 13:09:47;;;;;;;10.43;2.38;;;18.80;49.80;;;;;;4946122;29;20067;-70
2022/12/29 13:12:34;;;;;;;8.68;3.05;;;18.90;49.50;;;;;;4945977;29;20053;-69
2022/12/29 13:15:10;;;;;;;5.30;2.65;;;19.00;49.40;;;;;;4945844;29;20076;-70
2022/12/29 13:17:44;;;;;;;9.05;3.05;;;19.00;49.40;;;;;;4944662;29;20031;-69
2022/12/29 13:20:39;;;;;;;10.48;3.08;;;18.90;49.70;;;;;;4945810;29;20303;-69
2022/12/29 13:23:17;;;;;;;8.13;3.55;;;18.80;49.90;;;;;;4945753;29;20036;-70
2022/12/29 13:26:00;;;;;;;19.45;3.65;;;18.70;50.20;;;;;;4945692;29;20039;-70
2022/12/29 13:28:55;;;;;;;17.58;3.03;;;18.60;51.00;;;;;;4945599;29;20026;-69
2022/12/29 13:31:27;;;;;;;12.73;3.75;;;18.60;50.30;;;;;;4945571;29;20316;-69
2022/12/29 13:33:55;;;;;;;6.90;3.03;;;18.60;50.60;;;;;;4945563;29;20024;-69
2022/12/29 13:36:32;;;;;;;6.15;2.60;;;18.70;50.60;;;;;;4945523;29;20020;-69
2022/12/29 13:39:08;;;;;;;6.22;2.60;;;18.80;50.10;;;;;;4945414;29;20027;-69
2022/12/29 13:41:41;;;;;;;15.35;2.85;;;18.90;49.80;;;;;;4945454;29;20032;-68
2022/12/29 13:44:15;;;;;;;9.68;3.10;;;19.10;49.50;;;;;;4945343;29;20020;-68
2022/12/29 13:46:46;;;;;;;9.07;2.55;;;19.20;49.10;;;;;;4945625;29;20063;-69